• Join FlightAware (Why Join?)
  • Login
  • US Flag 
06:19PM EDT


 

Airport Tracker/Info


-or-


 

Live Flight TrackerFlight Track Log ✈ EJA826 ✈ 05-May-2013 ✈ KLIT - KBNA

Flight Track Log - Related Links

Times and Time Zones

All times are in EDT time to prevent confusion due to time zone crossing. See the EJA826 flight status page for this flight to view local times or setup timezone preferences in your user account.

Time Position Orientation Groundspeed Altitude Reporting Facility
EDT Latitude Longitude Course Direction KTS MPH feet Rate Location/Type
08:40AM 34.7408 -92.2375 84° East 242 278 1,000  Level Memphis Center
08:41AM 34.7483 -92.1542 84° East 252 290 6,600 4,560 Climbing Memphis Center
08:42AM 34.7433 -92.0681 94° East 283 326 11,100 3,840 Climbing Memphis Center
08:43AM 34.7258 -91.9617 101° East 301 346 14,300 3,300 Climbing Memphis Center
08:44AM 34.7314 -91.8531 86° East 314 361 17,800 3,120 Climbing Memphis Center
08:45AM 34.7517 -91.7347 78° East 327 376 20,600 3,000 Climbing Memphis Center
08:46AM 34.7717 -91.6061 79° East 350 403 23,800 2,880 Climbing Memphis Center
08:47AM 34.7936 -91.4825 78° East 364 419 26,400 2,520 Climbing Memphis Center
08:48AM 34.8114 -91.3614 80° East 364 419 28,900 1,260 Climbing Memphis Center
08:49AM 34.8333 -91.2250 79° East 385 443 29,000  Climbing Memphis Center
08:50AM 34.8531 -91.0808 80° East 419 482 29,000  Level Memphis Center
08:51AM 34.8767 -90.9317 79° East 438 504 29,000  Level Memphis Center
08:52AM 34.9003 -90.7825 79° East 448 516 29,000  Level Memphis Center
08:53AM 34.9217 -90.6331 80° East 448 516 29,000  Level Memphis Center
08:54AM 34.9425 -90.4811 80° East 448 516 29,000  Level Memphis Center
08:55AM 34.9636 -90.3469 79° East 448 516 29,000  Level Memphis Center
08:56AM 34.9864 -90.1975 79° East 448 516 29,000  Level Memphis Center
08:57AM 35.0089 -90.0478 80° East 448 516 29,000  Level Memphis Center
08:58AM 35.0461 -89.9006 73° East 448 516 29,000  Level Memphis Center
08:59AM 35.0975 -89.7481 68° East 448 516 29,000  Level Memphis Center
09:00AM 35.1447 -89.6081 68° East 448 516 29,000  Level Memphis Center
09:01AM 35.1897 -89.4678 69° East 438 504 29,000  Level Memphis Center
09:02AM 35.2347 -89.3325 68° East 432 497 29,000  Level Memphis Center
09:03AM 35.2794 -89.1972 68° East 432 497 29,000  Level Memphis Center
09:04AM 35.3258 -89.0592 68° East 427 491 29,000  Level Memphis Center
09:05AM 35.3642 -88.9364 69° East 427 491 29,000  Level Memphis Center
09:06AM 35.4064 -88.7981 69° East 432 497 29,000  Level Memphis Center
09:07AM 35.4544 -88.6519 68° East 432 497 29,000  Level Memphis Center
09:08AM 35.4983 -88.5183 68° East 426 490 29,000  Level Memphis Center
09:09AM 35.5422 -88.3847 68° East 426 490 29,000 -780 Level Memphis Center
09:10AM 35.5839 -88.2483 69° East 426 490 27,500 -1,800 Descending Memphis Center
09:11AM 35.6256 -88.1247 67° East 408 470 25,400 -2,100 Descending Memphis Center
09:12AM 35.6628 -88.0036 69° East 389 448 23,300 -2,100 Descending Memphis Center
09:13AM 35.7003 -87.8850 69° East 372 428 21,300 -1,980 Descending Memphis Center
09:14AM 35.7375 -87.7661 69° East 372 428 19,400 -1,920 Descending Memphis Center
09:15AM 35.7725 -87.6500 70° East 372 428 17,500 -1,800 Descending Memphis Center
09:16AM 35.8017 -87.5544 69° East 354 407 15,900 -1,740 Descending Memphis Center
09:17AM 35.8408 -87.4481 66° East 341 392 14,100 -1,800 Descending Memphis Center
09:18AM 35.8781 -87.3442 66° East 330 380 12,400 -1,740 Descending Memphis Center
09:19AM 35.9089 -87.2431 69° East 325 374 10,700 -1,620 Descending Memphis Center
09:20AM 35.9147 -87.1456 86° East 294 338 9,200 -1,680 Descending Memphis Center
09:21AM 35.8978 -87.0539 103° East 277 319 7,400 -1,800 Descending Memphis Center
09:22AM 35.8744 -86.9628 108° East 277 319 5,600 -1,680 Descending Memphis Center
09:23AM 35.8533 -86.8764 107° East 277 319 4,100 -840 Descending Memphis Center
09:24AM 35.8528 -86.7919 90° East 228 262 4,000 -540 Descending Memphis Center
09:25AM 35.9167 -86.7611 21° North 189 217 3,100 -540 Descending Memphis Center
09:26AM 35.9744 -86.7406 16° North 197 227 3,000 -300 Descending Memphis Center
09:27AM 36.0114 -86.7233 21° North 172 198 2,600 -600 Descending Memphis Center
09:28AM 36.0425 -86.7144 13° North 128 147 1,900 -660 Descending Memphis Center
09:29AM 36.0714 -86.7003 22° Northeast 108 124 1,300 -600 Descending Memphis Center
09:30AM 36.0961 -86.6914 16° North 108 124 700 -600 Descending Memphis Center
09:32AM 36.1167 -86.6667 39° Northeast  Level FlightAware Approximate
09:39AM 36.1245 -86.6782 39° Northeast  Level Estimated